Time;durP1;ratioP1;P1;durP2;ratioP2;P2;SDS_P1;SDS_P2;PMS_P1;PMS_P2;Temp;Humidity;BMP_temperature;BMP_pressure;BME280_temperature;BME280_humidity;BME280_pressure;Samples;Min_cycle;Max_cycle;Signal;HPM_P1;HPM_P2
2024/02/10 00:00:36;;;;;;;11.10;9.10;;;;;;;-0.94;100.00;99313.16;87195;270;137970;-73
2024/02/10 00:02:38;;;;;;;11.10;9.90;;;;;;;-0.93;100.00;99305.16;87341;271;22787;-72
2024/02/10 00:04:40;;;;;;;10.20;9.20;;;;;;;-0.90;100.00;99296.09;87231;270;136717;-70
2024/02/10 00:06:45;;;;;;;13.70;9.50;;;;;;;-0.87;100.00;99295.23;87260;271;22579;-75
2024/02/10 00:08:47;;;;;;;10.70;9.40;;;;;;;-0.85;100.00;99284.04;87277;265;138549;-75
2024/02/10 00:10:51;;;;;;;10.70;9.30;;;;;;;-0.85;100.00;99284.02;87289;270;22571;-70
2024/02/10 00:12:57;;;;;;;10.30;8.80;;;;;;;-0.87;100.00;99270.14;87239;270;137039;-72
2024/02/10 00:15:02;;;;;;;11.50;9.70;;;;;;;-0.90;100.00;99275.10;87415;271;25099;-74
2024/02/10 00:17:08;;;;;;;9.80;8.90;;;;;;;-0.98;100.00;99272.66;87280;266;137296;-70
2024/02/10 00:19:11;;;;;;;10.10;8.90;;;;;;;-0.99;100.00;99270.35;87223;270;22574;-70
2024/02/10 00:21:14;;;;;;;9.90;8.90;;;;;;;-0.97;100.00;99268.64;87333;271;137208;-75
2024/02/10 00:23:15;;;;;;;9.50;8.60;;;;;;;-0.95;100.00;99275.02;87291;271;22559;-72
2024/02/10 00:25:18;;;;;;;10.40;8.70;;;;;;;-0.94;100.00;99273.02;87142;274;136877;-74
2024/02/10 00:27:21;;;;;;;9.60;8.60;;;;;;;-0.93;100.00;99273.97;87475;271;25111;-72
2024/02/10 00:29:23;;;;;;;9.90;8.60;;;;;;;-0.91;100.00;99270.84;87055;280;138374;-72
2024/02/10 00:31:25;;;;;;;10.60;8.80;;;;;;;-0.89;100.00;99269.91;87191;271;22785;-69
2024/02/10 00:33:29;;;;;;;10.10;8.40;;;;;;;-0.87;100.00;99270.42;87110;268;138449;-71
2024/02/10 00:35:31;;;;;;;8.70;7.90;;;;;;;-0.85;100.00;99275.80;87396;266;25151;-74
2024/02/10 00:37:34;;;;;;;11.30;8.90;;;;;;;-0.83;100.00;99283.50;87147;267;136890;-71
2024/02/10 00:39:38;;;;;;;11.30;9.90;;;;;;;-0.82;100.00;99273.15;87264;271;25082;-75
2024/02/10 00:41:41;;;;;;;11.80;9.60;;;;;;;-0.80;100.00;99282.33;87139;268;136917;-73
2024/02/10 00:43:44;;;;;;;9.30;8.40;;;;;;;-0.78;100.00;99275.73;87210;271;22615;-71
2024/02/10 00:45:46;;;;;;;9.80;8.80;;;;;;;-0.79;100.00;99279.33;87196;270;137132;-71
2024/02/10 00:47:49;;;;;;;10.00;9.00;;;;;;;-0.79;100.00;99287.89;87363;274;25127;-72
2024/02/10 00:49:52;;;;;;;10.20;8.70;;;;;;;-0.79;100.00;99284.69;87274;270;137981;-71
2024/02/10 00:51:55;;;;;;;10.00;9.00;;;;;;;-0.80;100.00;99284.11;87370;271;25179;-71
2024/02/10 00:53:57;;;;;;;9.40;8.40;;;;;;;-0.81;100.00;99274.24;87036;268;136624;-73
2024/02/10 00:55:58;;;;;;;11.20;9.80;;;;;;;-0.82;100.00;99267.37;87286;275;22555;-73
2024/02/10 00:58:05;;;;;;;9.50;8.50;;;;;;;-0.81;100.00;99268.82;87241;274;137674;-73
2024/02/10 01:00:11;;;;;;;10.60;9.50;;;;;;;-0.80;100.00;99262.79;87214;266;138439;-69
2024/02/10 01:02:19;;;;;;;9.90;8.90;;;;;;;-0.79;100.00;99264.25;87700;262;25127;-70
2024/02/10 01:04:24;;;;;;;9.70;8.50;;;;;;;-0.77;100.00;99264.83;87279;274;138408;-71
2024/02/10 01:06:26;;;;;;;11.60;10.20;;;;;;;-0.79;100.00;99264.61;87350;270;22629;-69
2024/02/10 01:08:28;;;;;;;11.80;10.60;;;;;;;-0.81;100.00;99263.75;87136;267;137145;-69
2024/02/10 01:10:30;;;;;;;9.60;8.60;;;;;;;-0.81;100.00;99252.98;87244;277;25246;-72
2024/02/10 01:12:33;;;;;;;9.30;8.20;;;;;;;-0.81;100.00;99249.88;87198;274;136927;-70
2024/02/10 01:14:38;;;;;;;10.40;9.40;;;;;;;-0.82;100.00;99254.42;87323;278;25121;-71
2024/02/10 01:16:43;;;;;;;11.00;10.00;;;;;;;-0.83;100.00;99257.15;87263;270;136970;-73
2024/02/10 01:18:50;;;;;;;9.40;8.50;;;;;;;-0.84;100.00;99252.86;87320;273;22558;-72
2024/02/10 01:20:52;;;;;;;10.00;9.00;;;;;;;-0.84;100.00;99245.39;87213;265;136922;-72
2024/02/10 01:22:57;;;;;;;11.30;10.00;;;;;;;-0.83;100.00;99251.27;87346;270;22838;-73
2024/02/10 01:24:59;;;;;;;;;;;;;;;-0.86;100.00;99248.37;87302;266;138229;-71
2024/02/10 01:27:03;;;;;;;11.70;9.80;;;;;;;-0.85;100.00;99243.75;87333;270;22798;-70
2024/02/10 01:29:09;;;;;;;11.40;8.60;;;;;;;-0.86;100.00;99245.60;87214;274;138414;-73
2024/02/10 01:31:13;;;;;;;10.70;9.20;;;;;;;-0.90;100.00;99245.73;87437;277;24944;-69
2024/02/10 01:33:15;;;;;;;10.70;9.60;;;;;;;-0.90;100.00;99249.30;87270;266;137979;-73
2024/02/10 01:35:18;;;;;;;12.70;9.50;;;;;;;-0.90;100.00;99248.28;87626;270;25098;-74
2024/02/10 01:37:21;;;;;;;10.50;8.90;;;;;;;-0.88;100.00;99255.22;87151;272;137051;-72
2024/02/10 01:39:23;;;;;;;9.70;8.60;;;;;;;-0.87;100.00;99255.45;87425;271;25143;-71
2024/02/10 01:41:25;;;;;;;12.40;10.00;;;;;;;-0.86;100.00;99253.26;87153;269;136838;-70
2024/02/10 01:43:27;;;;;;;10.30;9.30;;;;;;;-0.84;100.00;99246.30;87175;271;22555;-69
2024/02/10 01:45:29;;;;;;;10.00;8.80;;;;;;;-0.83;100.00;99244.98;87215;278;138176;-74
2024/02/10 01:47:31;;;;;;;12.50;10.30;;;;;;;-0.83;100.00;99240.79;87268;271;25134;-71
2024/02/10 01:49:33;;;;;;;12.20;9.30;;;;;;;-0.84;100.00;99247.48;87140;271;137152;-70
2024/02/10 01:51:35;;;;;;;9.50;8.40;;;;;;;-0.85;100.00;99245.29;87201;271;27157;-71
2024/02/10 01:53:38;;;;;;;10.60;7.90;;;;;;;-0.83;100.00;99247.09;87139;277;137192;-76
2024/02/10 01:55:42;;;;;;;10.30;9.00;;;;;;;-0.83;100.00;99244.46;87555;270;25136;-71
2024/02/10 01:57:52;;;;;;;10.10;9.10;;;;;;;-0.82;100.00;99244.83;87288;270;138408;-72
2024/02/10 01:59:54;;;;;;;12.80;9.30;;;;;;;-0.81;100.00;99249.49;87410;274;25219;-72
2024/02/10 02:01:57;;;;;;;12.80;9.10;;;;;;;-0.80;100.00;99253.42;87246;266;136641;-70
2024/02/10 02:03:58;;;;;;;11.00;9.80;;;;;;;-0.81;100.00;99253.13;87280;266;22593;-72
2024/02/10 02:06:00;;;;;;;11.20;9.70;;;;;;;-0.83;100.00;99256.64;87188;270;136709;-70
2024/02/10 02:08:04;;;;;;;11.10;9.70;;;;;;;-0.83;100.00;99255.55;87331;274;25137;-71
2024/02/10 02:10:08;;;;;;;10.20;9.20;;;;;;;-0.81;100.00;99261.70;87152;275;26181;-72
2024/02/10 02:12:11;;;;;;;10.40;9.40;;;;;;;-0.79;100.00;99259.21;87069;266;137611;-71
2024/02/10 02:14:15;;;;;;;11.00;9.20;;;;;;;-0.77;100.00;99259.27;87248;274;22675;-73
2024/02/10 02:16:17;;;;;;;10.30;9.30;;;;;;;-0.79;100.00;99258.70;87240;266;137340;-71
2024/02/10 02:18:19;;;;;;;15.10;9.80;;;;;;;-0.81;100.00;99248.47;87400;274;22558;-70
2024/02/10 02:20:22;;;;;;;11.50;10.30;;;;;;;-0.84;100.00;99246.61;87064;277;137251;-71
2024/02/10 02:22:25;;;;;;;10.70;9.50;;;;;;;-0.86;100.00;99246.11;87399;270;22746;-71
2024/02/10 02:24:31;;;;;;;11.20;9.60;;;;;;;-0.87;100.00;99254.70;87213;277;137169;-72
2024/02/10 02:26:33;;;;;;;10.60;9.60;;;;;;;-0.86;100.00;99254.33;87331;263;25265;-71
2024/02/10 02:28:35;;;;;;;11.10;9.40;;;;;;;-0.86;100.00;99253.28;87216;270;136919;-71
2024/02/10 02:30:37;;;;;;;11.60;9.40;;;;;;;-0.86;100.00;99252.54;87502;266;25133;-70
2024/02/10 02:32:41;;;;;;;10.50;9.50;;;;;;;-0.87;100.00;99253.13;87278;277;137193;-71
2024/02/10 02:34:44;;;;;;;10.40;9.20;;;;;;;-0.86;100.00;99251.02;87203;273;25223;-70
2024/02/10 02:36:46;;;;;;;10.00;8.50;;;;;;;-0.85;100.00;99250.91;87198;275;138371;-70
2024/02/10 02:38:49;;;;;;;9.20;8.30;;;;;;;-0.83;100.00;99248.48;87083;279;22574;-71
2024/02/10 02:40:51;;;;;;;11.10;8.30;;;;;;;-0.85;100.00;99249.52;87040;270;137043;-71
2024/02/10 02:42:53;;;;;;;10.70;9.40;;;;;;;-0.86;100.00;99248.55;87233;269;24810;-70
2024/02/10 02:44:55;;;;;;;9.60;8.40;;;;;;;-0.85;100.00;99247.42;87200;277;137071;-71
2024/02/10 02:46:59;;;;;;;9.60;8.60;;;;;;;-0.85;100.00;99247.56;87281;273;25226;-71
2024/02/10 02:49:01;;;;;;;9.70;7.90;;;;;;;-0.83;100.00;99249.34;87290;273;136770;-72
2024/02/10 02:51:04;;;;;;;9.20;8.20;;;;;;;-0.82;100.00;99248.92;87424;270;22605;-74
2024/02/10 02:53:06;;;;;;;9.30;8.40;;;;;;;-0.81;100.00;99256.10;87415;274;136834;-72
2024/02/10 02:55:10;;;;;;;9.00;8.10;;;;;;;-0.80;100.00;99255.16;87157;270;24221;-71
2024/02/10 02:57:17;;;;;;;11.40;8.60;;;;;;;-0.81;100.00;99254.14;87003;270;136608;-71
2024/02/10 02:59:20;;;;;;;8.90;8.00;;;;;;;-0.81;100.00;99256.27;87188;266;26216;-72
2024/02/10 03:01:22;;;;;;;10.30;8.10;;;;;;;-0.81;100.00;99257.64;87111;270;136739;-71
2024/02/10 03:03:25;;;;;;;9.00;7.60;;;;;;;-0.79;100.00;99258.52;87457;271;25260;-70
2024/02/10 03:05:33;;;;;;;10.00;8.70;;;;;;;-0.80;100.00;99245.38;87202;270;136901;-71
2024/02/10 03:07:36;;;;;;;9.20;8.30;;;;;;;-0.80;100.00;99256.35;87270;277;22670;-73
2024/02/10 03:09:38;;;;;;;9.80;8.70;;;;;;;-0.78;100.00;99258.96;87403;277;138170;-73
2024/02/10 03:11:39;;;;;;;10.00;9.00;;;;;;;-0.75;100.00;99263.08;87338;274;22980;-73
2024/02/10 03:13:43;;;;;;;10.30;9.20;;;;;;;-0.73;100.00;99267.44;87276;270;137053;-71
2024/02/10 03:15:47;;;;;;;9.50;7.90;;;;;;;-0.72;100.00;99263.33;87367;270;24926;-72
2024/02/10 03:17:49;;;;;;;9.30;7.60;;;;;;;-0.71;100.00;99273.73;87316;273;138011;-74
2024/02/10 03:19:52;;;;;;;9.20;7.80;;;;;;;-0.70;100.00;99271.19;87367;274;22558;-72
2024/02/10 03:21:54;;;;;;;8.90;7.70;;;;;;;-0.73;100.00;99258.36;87138;271;136693;-73
2024/02/10 03:24:01;;;;;;;14.30;9.10;;;;;;;-0.77;100.00;99262.18;87409;270;25338;-71
2024/02/10 03:26:04;;;;;;;9.10;8.20;;;;;;;-0.79;100.00;99273.53;87199;270;25083;-75
2024/02/10 03:28:07;;;;;;;11.30;8.00;;;;;;;-0.78;100.00;99271.05;87026;272;137559;-73
2024/02/10 03:30:13;;;;;;;11.40;10.10;;;;;;;-0.78;100.00;99266.34;87329;266;22571;-72
2024/02/10 03:32:16;;;;;;;9.60;8.70;;;;;;;-0.80;100.00;99268.02;87184;270;137440;-70
2024/02/10 03:34:18;;;;;;;10.90;9.20;;;;;;;-0.80;100.00;99262.32;87234;272;22561;-73
2024/02/10 03:36:24;;;;;;;13.00;10.20;;;;;;;-0.79;100.00;99261.88;87330;266;137173;-73
2024/02/10 03:38:27;;;;;;;12.20;10.20;;;;;;;-0.75;100.00;99261.48;87405;271;25181;-73
2024/02/10 03:40:31;;;;;;;9.50;8.50;;;;;;;-0.70;100.00;99254.77;87150;266;139857;-74
2024/02/10 03:42:33;;;;;;;9.80;8.60;;;;;;;-0.66;100.00;99262.39;87200;271;26499;-71
2024/02/10 03:44:35;;;;;;;10.10;9.00;;;;;;;-0.64;100.00;99253.80;87235;278;136835;-71
2024/02/10 03:46:37;;;;;;;9.00;8.20;;;;;;;-0.63;100.00;99247.81;87323;275;22655;-70
2024/02/10 03:48:42;;;;;;;10.00;8.10;;;;;;;-0.63;100.00;99244.88;87151;271;138054;-73
2024/02/10 03:50:44;;;;;;;11.40;9.80;;;;;;;-0.61;100.00;99238.58;87474;270;22574;-74
2024/02/10 03:52:46;;;;;;;9.70;8.70;;;;;;;-0.61;100.00;99244.77;87252;270;139064;-72
2024/02/10 03:54:51;;;;;;;10.40;9.10;;;;;;;-0.61;100.00;99243.40;87275;275;25146;-71
2024/02/10 03:56:53;;;;;;;10.40;8.60;;;;;;;-0.62;100.00;99247.34;87246;278;136917;-69
2024/02/10 03:58:55;;;;;;;10.00;9.00;;;;;;;-0.62;100.00;99248.25;86713;279;661842;-68
2024/02/10 04:00:57;;;;;;;9.80;8.80;;;;;;;-0.62;100.00;99253.65;87204;278;137242;-68
2024/02/10 04:02:59;;;;;;;10.40;8.90;;;;;;;-0.60;100.00;99258.68;87362;267;22558;-70
2024/02/10 04:05:02;;;;;;;10.00;8.80;;;;;;;-0.59;100.00;99253.20;87244;270;137484;-72
2024/02/10 04:07:04;;;;;;;9.50;8.40;;;;;;;-0.57;100.00;99258.63;87451;270;24258;-69
2024/02/10 04:09:06;;;;;;;12.60;9.10;;;;;;;-0.57;100.00;99257.08;87197;271;136947;-68
2024/02/10 04:11:08;;;;;;;12.40;10.40;;;;;;;-0.57;100.00;99263.69;87126;268;24034;-72
2024/02/10 04:13:11;;;;;;;9.10;8.10;;;;;;;-0.55;100.00;99261.22;87202;263;136838;-67
2024/02/10 04:15:13;;;;;;;9.00;7.80;;;;;;;-0.53;100.00;99261.58;87419;267;22722;-67
2024/02/10 04:17:15;;;;;;;10.10;9.10;;;;;;;-0.53;100.00;99256.70;87421;274;136947;-67
2024/02/10 04:19:20;;;;;;;14.40;10.30;;;;;;;-0.51;100.00;99255.13;87355;270;24139;-71
2024/02/10 04:21:21;;;;;;;11.10;10.00;;;;;;;-0.53;100.00;99253.52;87342;270;137488;-69
2024/02/10 04:23:31;;;;;;;12.40;9.80;;;;;;;-0.52;100.00;99251.52;87358;277;22565;-69
2024/02/10 04:25:33;;;;;;;10.00;8.80;;;;;;;-0.51;100.00;99256.80;87385;270;136643;-69
2024/02/10 04:27:36;;;;;;;11.00;9.20;;;;;;;-0.48;100.00;99254.81;87337;274;22559;-69
2024/02/10 04:29:38;;;;;;;10.40;9.30;;;;;;;-0.46;100.00;99258.98;87288;274;137444;-73
2024/02/10 04:31:43;;;;;;;10.30;9.10;;;;;;;-0.45;100.00;99256.98;87323;270;24036;-69
2024/02/10 04:33:50;;;;;;;8.90;7.70;;;;;;;-0.47;100.00;99253.81;87314;273;137107;-72
2024/02/10 04:35:52;;;;;;;9.60;8.40;;;;;;;-0.50;100.00;99257.60;87321;268;24439;-67
2024/02/10 04:37:55;;;;;;;10.10;8.50;;;;;;;-0.52;100.00;99254.16;87204;266;136790;-72
2024/02/10 04:39:59;;;;;;;;;;;;;;;-0.58;100.00;99252.45;87364;266;25162;-68
2024/02/10 04:42:05;;;;;;;9.80;8.60;;;;;;;-0.61;100.00;99262.61;87297;277;123306;-68
2024/02/10 04:44:06;;;;;;;9.20;8.30;;;;;;;-0.61;100.00;99258.95;87213;275;137229;-67
2024/02/10 04:46:10;;;;;;;9.10;8.30;;;;;;;-0.60;100.00;99252.23;87328;270;22573;-70
2024/02/10 04:48:13;;;;;;;11.00;9.90;;;;;;;-0.59;100.00;99252.83;87293;274;137076;-68
2024/02/10 04:50:17;;;;;;;11.80;9.70;;;;;;;-0.58;100.00;99252.10;87288;277;25261;-68
2024/02/10 04:52:19;;;;;;;12.20;9.00;;;;;;;-0.59;100.00;99252.73;87246;270;137339;-69
2024/02/10 04:54:21;;;;;;;9.50;8.50;;;;;;;-0.60;100.00;99247.36;87361;273;24212;-69
2024/02/10 04:56:27;;;;;;;9.30;8.40;;;;;;;-0.62;100.00;99252.55;87203;273;136976;-68
2024/02/10 04:58:29;;;;;;;12.50;9.30;;;;;;;-0.61;100.00;99250.77;87314;271;23145;-68
2024/02/10 05:00:32;;;;;;;9.40;8.30;;;;;;;-0.60;100.00;99264.44;87208;277;137164;-67
2024/02/10 05:02:34;;;;;;;12.30;9.00;;;;;;;-0.59;100.00;99257.39;87242;270;22813;-68
2024/02/10 05:04:43;;;;;;;12.30;9.90;;;;;;;-0.59;100.00;99258.95;87206;266;137076;-67
2024/02/10 05:06:46;;;;;;;11.50;8.70;;;;;;;-0.59;100.00;99266.83;87403;270;25080;-68
2024/02/10 05:08:47;;;;;;;12.00;10.70;;;;;;;-0.60;100.00;99270.52;87171;271;137081;-67
2024/02/10 05:10:49;;;;;;;11.80;9.50;;;;;;;-0.59;100.00;99264.71;87376;271;22642;-69
2024/02/10 05:12:52;;;;;;;12.30;10.00;;;;;;;-0.59;100.00;99267.66;87312;274;136935;-65
2024/02/10 05:14:56;;;;;;;11.80;10.40;;;;;;;-0.58;100.00;99268.13;87523;265;24154;-68
2024/02/10 05:16:58;;;;;;;15.20;10.60;;;;;;;-0.56;100.00;99269.89;87199;266;137317;-67
2024/02/10 05:19:02;;;;;;;13.50;11.40;;;;;;;-0.55;100.00;99272.38;87351;274;22559;-71
2024/02/10 05:21:05;;;;;;;13.10;10.90;;;;;;;-0.53;100.00;99278.66;87260;271;137184;-69
2024/02/10 05:23:07;;;;;;;10.00;8.90;;;;;;;-0.52;100.00;99278.22;87333;277;25168;-67
2024/02/10 05:25:12;;;;;;;11.20;9.80;;;;;;;-0.54;100.00;99279.63;87240;274;137077;-69
2024/02/10 05:27:13;;;;;;;12.70;10.30;;;;;;;-0.56;100.00;99278.27;87302;270;23226;-71
2024/02/10 05:29:18;;;;;;;12.70;10.60;;;;;;;-0.58;100.00;99276.50;87240;267;137031;-70
2024/02/10 05:31:20;;;;;;;10.50;9.50;;;;;;;-0.60;100.00;99269.34;87446;271;22567;-75
2024/02/10 05:33:27;;;;;;;11.90;9.80;;;;;;;-0.62;100.00;99272.80;87452;274;138369;-70
2024/02/10 05:35:30;;;;;;;12.90;10.80;;;;;;;-0.63;100.00;99279.91;87387;265;22551;-70
2024/02/10 05:37:38;;;;;;;12.50;11.10;;;;;;;-0.65;100.00;99286.73;87072;272;136551;-71
2024/02/10 05:39:40;;;;;;;12.90;10.30;;;;;;;-0.64;100.00;99293.27;87257;275;22690;-74
2024/02/10 05:41:43;;;;;;;12.10;10.30;;;;;;;-0.61;100.00;99276.77;87002;277;137396;-72
2024/02/10 05:43:45;;;;;;;11.20;9.80;;;;;;;-0.53;100.00;99277.48;87105;270;22584;-70
2024/02/10 05:45:47;;;;;;;13.70;11.10;;;;;;;-0.51;100.00;99277.91;87019;265;137095;-70
2024/02/10 05:47:50;;;;;;;12.20;10.30;;;;;;;-0.49;100.00;99283.23;87112;270;22974;-72
2024/02/10 05:49:53;;;;;;;14.50;10.80;;;;;;;-0.49;100.00;99277.60;86859;276;136895;-75
2024/02/10 05:51:55;;;;;;;15.20;11.10;;;;;;;-0.48;100.00;99274.31;86984;271;23063;-71
2024/02/10 05:53:57;;;;;;;11.70;9.80;;;;;;;-0.43;100.00;99270.58;87061;277;136985;-68
2024/02/10 05:55:59;;;;;;;14.70;10.20;;;;;;;-0.43;100.00;99271.98;87197;277;22632;-85
2024/02/10 05:58:06;;;;;;;11.50;10.00;;;;;;;-0.46;100.00;99273.96;87036;274;136739;-83
2024/02/10 06:00:11;;;;;;;14.40;10.20;;;;;;;-0.43;100.00;99279.10;87081;270;137431;-76
2024/02/10 06:02:16;;;;;;;10.70;9.60;;;;;;;-0.44;100.00;99290.89;87260;267;25252;-77
2024/02/10 06:04:18;;;;;;;11.00;9.40;;;;;;;-0.50;100.00;99289.89;87013;270;137256;-72
2024/02/10 06:06:20;;;;;;;12.40;10.20;;;;;;;-0.47;100.00;99286.66;87592;274;25236;-70
2024/02/10 06:08:23;;;;;;;11.30;9.80;;;;;;;-0.45;100.00;99288.37;87289;270;137453;-70
2024/02/10 06:10:25;;;;;;;14.60;11.80;;;;;;;-0.44;100.00;99294.23;87308;262;24475;-74
2024/02/10 06:12:28;;;;;;;12.90;11.50;;;;;;;-0.44;100.00;99291.12;87020;270;137128;-71
2024/02/10 06:14:30;;;;;;;10.70;9.50;;;;;;;-0.42;100.00;99292.29;87031;271;25771;-71
2024/02/10 06:16:32;;;;;;;12.80;10.40;;;;;;;-0.42;100.00;99294.03;87188;270;137047;-75
2024/02/10 06:18:34;;;;;;;12.10;10.20;;;;;;;-0.42;100.00;99297.86;87106;266;26468;-70
2024/02/10 06:20:36;;;;;;;11.40;10.10;;;;;;;-0.41;100.00;99306.18;86912;278;138595;-71
2024/02/10 06:22:40;;;;;;;9.70;8.60;;;;;;;-0.40;100.00;99312.67;87103;270;25124;-75
2024/02/10 06:24:44;;;;;;;15.60;10.60;;;;;;;-0.43;100.00;99302.54;87008;272;136412;-73
2024/02/10 06:26:48;;;;;;;12.20;10.90;;;;;;;-0.45;100.00;99300.64;87078;275;24042;-73
2024/02/10 06:28:50;;;;;;;12.60;10.30;;;;;;;-0.45;100.00;99305.45;87362;270;137329;-72
2024/02/10 06:30:55;;;;;;;12.70;10.20;;;;;;;-0.42;100.00;99320.02;87087;277;24882;-71
2024/02/10 06:32:58;;;;;;;14.60;11.30;;;;;;;-0.37;100.00;99314.73;87091;270;137088;-68
2024/02/10 06:35:00;;;;;;;11.40;9.90;;;;;;;-0.34;100.00;99318.29;88075;263;22600;-77
2024/02/10 06:37:02;;;;;;;12.20;10.30;;;;;;;-0.31;100.00;99322.48;87101;274;138023;-71
2024/02/10 06:39:04;;;;;;;11.40;10.20;;;;;;;-0.28;100.00;99313.98;87243;279;22772;-70
2024/02/10 06:41:08;;;;;;;13.60;10.20;;;;;;;-0.26;100.00;99314.02;86975;275;137644;-77
2024/02/10 06:43:12;;;;;;;10.20;8.90;;;;;;;-0.24;100.00;99312.24;87211;266;22514;-72
2024/02/10 06:45:15;;;;;;;11.70;10.40;;;;;;;-0.23;100.00;99308.61;87064;270;136979;-75
2024/02/10 06:47:17;;;;;;;12.90;9.80;;;;;;;-0.21;100.00;99308.48;87160;270;25075;-74
2024/02/10 06:49:20;;;;;;;12.40;9.60;;;;;;;-0.20;100.00;99313.95;87398;270;136784;-76
2024/02/10 06:51:22;;;;;;;12.00;8.30;;;;;;;-0.21;100.00;99315.80;87316;266;25242;-71
2024/02/10 06:53:24;;;;;;;16.20;11.00;;;;;;;-0.27;100.00;99311.64;87736;273;136689;-73
2024/02/10 06:55:27;;;;;;;16.70;12.80;;;;;;;-0.30;100.00;99316.52;87019;270;22554;-72
2024/02/10 06:57:31;;;;;;;17.80;12.80;;;;;;;-0.30;100.00;99319.13;87036;266;136821;-71
2024/02/10 06:59:35;;;;;;;13.30;11.20;;;;;;;-0.26;100.00;99322.95;87046;266;22697;-71
2024/02/10 07:01:37;;;;;;;14.60;10.90;;;;;;;-0.24;100.00;99320.98;87151;266;138243;-69
2024/02/10 07:03:45;;;;;;;14.40;10.60;;;;;;;-0.22;100.00;99325.55;86832;276;24856;-68
2024/02/10 07:05:50;;;;;;;13.40;10.90;;;;;;;-0.19;100.00;99320.66;87111;273;138613;-73
2024/02/10 07:07:53;;;;;;;12.60;9.70;;;;;;;-0.12;100.00;99325.33;87104;270;24010;-70
2024/02/10 07:09:59;;;;;;;11.30;9.60;;;;;;;-0.11;100.00;99328.50;87225;277;136515;-73
2024/02/10 07:12:01;;;;;;;12.00;10.10;;;;;;;-0.13;100.00;99330.47;87239;270;24891;-72
2024/02/10 07:14:08;;;;;;;10.60;9.30;;;;;;;-0.14;100.00;99325.02;87057;270;22654;-69
2024/02/10 07:16:09;;;;;;;12.40;10.00;;;;;;;-0.14;100.00;99325.33;86913;273;137176;-74
2024/02/10 07:18:11;;;;;;;12.10;9.10;;;;;;;-0.13;100.00;99326.47;87107;270;22540;-70
2024/02/10 07:20:18;;;;;;;10.20;9.20;;;;;;;-0.12;100.00;99330.36;86842;278;137094;-79
2024/02/10 07:22:20;;;;;;;13.00;9.80;;;;;;;-0.10;100.00;99338.19;87215;267;25188;-72
2024/02/10 07:24:24;;;;;;;10.70;9.60;;;;;;;-0.06;100.00;99335.02;86987;274;137353;-73
2024/02/10 07:26:27;;;;;;;13.90;10.60;;;;;;;-0.05;100.00;99327.27;87037;266;22741;-69
2024/02/10 07:28:29;;;;;;;13.40;11.00;;;;;;;-0.08;100.00;99333.06;86917;266;137159;-76
2024/02/10 07:30:33;;;;;;;14.10;11.80;;;;;;;-0.08;100.00;99339.92;87004;279;22619;-71
2024/02/10 07:32:35;;;;;;;12.10;10.40;;;;;;;-0.10;100.00;99333.80;87513;266;137119;-70
2024/02/10 07:34:38;;;;;;;16.20;12.70;;;;;;;-0.14;100.00;99338.17;87086;274;22562;-72
2024/02/10 07:36:41;;;;;;;15.60;12.00;;;;;;;-0.09;100.00;99327.10;87049;276;136939;-67
2024/02/10 07:38:44;;;;;;;16.90;12.70;;;;;;;-0.08;100.00;99335.00;87475;273;22539;-71
2024/02/10 07:40:47;;;;;;;16.40;12.80;;;;;;;-0.05;100.00;99329.89;87400;273;140017;-74
2024/02/10 07:42:51;;;;;;;9.90;8.90;;;;;;;-0.04;100.00;99338.31;88460;270;22507;-71
2024/02/10 07:44:55;;;;;;;15.40;13.00;;;;;;;-0.03;100.00;99338.70;87558;266;139194;-71
2024/02/10 07:46:57;;;;;;;15.00;11.70;;;;;;;-0.03;100.00;99335.11;87681;274;22558;-71
2024/02/10 07:49:01;;;;;;;15.70;11.80;;;;;;;-0.04;100.00;99334.81;86821;271;137261;-71
2024/02/10 07:51:04;;;;;;;13.30;11.20;;;;;;;-0.04;100.00;99334.65;87105;270;22530;-75
2024/02/10 07:53:09;;;;;;;15.20;11.40;;;;;;;-0.04;100.00;99334.46;86964;271;137146;-71
2024/02/10 07:55:12;;;;;;;;;;;;;;;-0.01;100.00;99334.91;87298;271;22549;-71
2024/02/10 07:57:21;;;;;;;14.60;12.20;;;;;;;0.01;100.00;99336.68;87178;270;124119;-74
2024/02/10 08:01:34;;;;;;;12.90;10.30;;;;;;;-0.08;100.00;99334.54;84920;304;602997;-72
2024/02/10 08:03:36;;;;;;;12.60;11.00;;;;;;;-0.03;100.00;99329.52;86001;292;25130;-75
2024/02/10 08:05:40;;;;;;;10.60;8.60;;;;;;;-0.01;100.00;99337.70;86510;276;136535;-74
2024/02/10 08:07:42;;;;;;;13.00;10.70;;;;;;;-0.01;100.00;99326.83;88868;272;22574;-72
2024/02/10 08:09:45;;;;;;;12.00;10.70;;;;;;;0.02;100.00;99330.11;86886;271;136402;-69
2024/02/10 08:11:47;;;;;;;10.80;9.80;;;;;;;0.07;100.00;99326.27;86738;267;22574;-72
2024/02/10 08:13:51;;;;;;;9.90;8.30;;;;;;;0.13;100.00;99325.02;86569;276;136245;-76
2024/02/10 08:15:54;;;;;;;15.60;11.10;;;;;;;0.14;100.00;99316.00;86309;282;777045;-69
2024/02/10 08:18:00;;;;;;;14.90;11.80;;;;;;;0.11;100.00;99317.05;86940;277;136117;-71
2024/02/10 08:20:03;;;;;;;14.70;12.10;;;;;;;0.10;100.00;99317.49;86773;279;136914;-68
2024/02/10 08:22:09;;;;;;;12.50;9.80;;;;;;;0.11;100.00;99322.60;87033;277;23533;-72
2024/02/10 08:24:11;;;;;;;11.70;10.10;;;;;;;0.11;100.00;99312.31;86872;280;137131;-71
2024/02/10 08:26:13;;;;;;;11.40;10.00;;;;;;;0.12;100.00;99310.08;90034;269;23063;-71
2024/02/10 08:28:18;;;;;;;12.90;10.20;;;;;;;0.10;100.00;99312.38;87723;273;136868;-74
2024/02/10 08:30:20;;;;;;;20.00;11.90;;;;;;;0.08;100.00;99315.71;88059;264;22571;-76
2024/02/10 08:32:22;;;;;;;27.00;12.70;;;;;;;0.10;100.00;99318.64;86869;272;136675;-71
2024/02/10 08:34:27;;;;;;;19.80;12.40;;;;;;;0.15;100.00;99317.66;86937;272;22588;-72
2024/02/10 08:36:31;;;;;;;17.60;11.10;;;;;;;0.19;100.00;99321.27;87038;280;136792;-70
2024/02/10 08:38:34;;;;;;;17.30;11.80;;;;;;;0.22;100.00;99324.35;86905;280;22554;-70
2024/02/10 08:40:37;;;;;;;15.60;11.60;;;;;;;0.26;100.00;99325.92;86790;276;136482;-76
2024/02/10 08:42:39;;;;;;;16.50;10.20;;;;;;;0.25;100.00;99331.54;86885;272;22552;-74
2024/02/10 08:44:45;;;;;;;23.90;10.90;;;;;;;0.25;100.00;99335.92;87776;272;136420;-73
2024/02/10 08:46:48;;;;;;;25.20;11.40;;;;;;;0.26;100.00;99332.68;88732;277;22574;-78
2024/02/10 08:48:52;;;;;;;26.50;12.40;;;;;;;0.25;100.00;99319.50;86867;273;136288;-70
2024/02/10 08:50:54;;;;;;;18.40;10.90;;;;;;;0.26;100.00;99323.25;87715;269;23139;-72
2024/02/10 08:52:57;;;;;;;12.10;8.80;;;;;;;0.29;100.00;99327.02;86896;280;136830;-70
2024/02/10 08:55:04;;;;;;;11.50;8.10;;;;;;;0.33;100.00;99322.27;88456;280;22510;-74
2024/02/10 08:57:09;;;;;;;16.60;9.10;;;;;;;0.32;100.00;99331.61;87752;266;136687;-71
2024/02/10 08:59:14;;;;;;;12.50;8.60;;;;;;;0.32;100.00;99327.77;86864;273;22559;-71
2024/02/10 09:01:17;;;;;;;18.70;8.20;;;;;;;0.32;100.00;99314.33;86723;273;136710;-73
2024/02/10 09:03:19;;;;;;;20.70;10.40;;;;;;;0.31;100.00;99317.73;87038;273;24574;-73
2024/02/10 09:05:26;;;;;;;14.60;10.00;;;;;;;0.27;100.00;99317.95;86817;273;137789;-73
2024/02/10 09:07:29;;;;;;;24.60;11.50;;;;;;;0.27;100.00;99314.64;86912;273;25226;-71
2024/02/10 09:09:32;;;;;;;30.20;12.80;;;;;;;0.26;100.00;99310.86;87033;274;136725;-70
2024/02/10 09:11:39;;;;;;;22.10;11.50;;;;;;;0.29;100.00;99319.64;86877;265;22578;-71
2024/02/10 09:13:44;;;;;;;14.30;8.10;;;;;;;0.33;100.00;99324.16;87088;271;136332;-71
2024/02/10 09:15:46;;;;;;;16.30;8.40;;;;;;;0.35;100.00;99319.64;86923;279;23664;-71
2024/02/10 09:17:50;;;;;;;16.20;8.40;;;;;;;0.36;100.00;99321.06;86835;273;136365;-77
2024/02/10 09:19:53;;;;;;;15.50;7.80;;;;;;;0.40;100.00;99319.63;86953;273;25086;-76
2024/02/10 09:21:57;;;;;;;16.10;10.10;;;;;;;0.39;100.00;99320.95;86777;271;135745;-69
2024/02/10 09:24:00;;;;;;;14.60;8.40;;;;;;;0.42;100.00;99325.25;87702;272;22821;-71
2024/02/10 09:26:02;;;;;;;17.80;9.60;;;;;;;0.44;100.00;99320.20;86938;267;136088;-70
2024/02/10 09:28:04;;;;;;;14.90;9.60;;;;;;;0.46;100.00;99316.98;87464;267;137575;-73
2024/02/10 09:30:12;;;;;;;10.50;6.90;;;;;;;0.48;100.00;99322.25;86956;276;22563;-74
2024/02/10 09:32:14;;;;;;;10.20;6.30;;;;;;;0.50;100.00;99320.56;87164;271;136725;-70